Accueil
METAR-TAF:

METAR-TAF

Aéroports :

Tanna, Vanuatu

latitude: 19-27-18S, longitude: 169-13-26E, altitude: 6 m

Observation

Le bulletin a été fait il y a 4 heures et 47 minutes, à 04:00 UTC
Vent 4 kt de est
Température 26°C
Humidité 79%
Pression 1009 hPa
Visibilité 10 km ou plus
Nuages fragmentés à une hauteur de 1800 ft

METAR: NVVW 200400Z 09004KT 9999 BKN018 26/22 Q1009 RMK RESH

Heure: 19:47 (08:47 UTC)

Prévision

Le bulletin a été fait il y a 4 heures et 17 minutes, à 04:30 UTC
Prévision valable du 20 à 06 UTC au 21 à 06 UTC
Vent 8 kt de est/sud-est
Visibilité: 9000 m
Nuages épars à une hauteur de 2000 ft
Nuages fragmentés à une hauteur de 4000 ft
Nuages fragmentés à une hauteur de 1800 ft
faibles averses de pluie
Evoluant progressivement
du 20 à 06 UTC au 20 à 08 UTC
Vent 3 kt de direction variable

TAF: NVVW 200430Z 2006/2106 12008KT 9999 SCT020 BKN040 INTER 2006/2012 9000 -SHRA BKN018 BECMG 2006/2008 VRB03KT

Observations et prévisions météorologiques de plus de 4000 aéroports (messages METAR et TAF).

Les stations disponibles sont représentées par des disques jaunes et rouges sur la carte.

Passer la souris dessus pour voir le nom de la station.

Cliquer dessus pour voir les observations et prévisions météorologiques.

Pour changer de carte: cliquez sur les boutons verts avec une croix noire pour zoomer, sur le bouton vert avec un tiret pour effectuer un zoom arrière, ou sur les flèches vertes pour les cartes adjacentes.


METAR-TAF: